.
WxDataArchive / Data Records for 2009-12-31
2009-12-30 December 2009 2010-01-01

Data Records for Thursday, 31 December 2009

Time	Temp	Chill	HIndex	Humid	Dewpt	 Wind 	HiWind	WindDir	Rain 	Barom 
-----	----	-----	------	-----	-----	------	------	-------	-----	----- 
00:00	31.9	31.9	31.9	93	30.1	0	2	248	0.00	30.001 
00:05	32.1	32.1	32.1	93	30.3	0	1	248	0.00	30.001 
00:10	32.2	32.2	32.2	93	30.4	0	3	248	0.00	30.001 
00:15	32.4	32.4	32.4	93	30.6	0	2	248	0.00	29.997 
00:20	32.4	32.4	32.4	93	30.6	0	3	248	0.00	29.997 
00:25	32.5	32.5	32.5	93	30.7	0	3	248	0.00	29.997 
00:30	32.5	32.5	32.5	93	30.7	0	1	248	0.00	29.991 
00:35	32.5	32.5	32.5	93	30.7	0	2	248	0.00	29.991 
00:40	32.5	32.5	32.5	93	30.7	0	1	248	0.00	29.991 
00:45	32.5	32.5	32.5	93	30.7	0	1	248	0.00	29.984 
00:50	32.7	32.7	32.7	93	30.9	0	1	248	0.00	29.984 
00:55	32.7	32.7	32.7	93	30.9	0	1	248	0.00	29.984 
01:00	32.7	32.7	32.7	93	30.9	0	1	248	0.00	29.983 
01:05	32.7	32.7	32.7	93	30.9	0	1	248	0.00	29.983 
01:10	32.7	32.7	32.7	94	31.2	0	1	248	0.00	29.983 
01:15	32.7	32.7	32.7	94	31.2	0	1	248	0.00	29.979 
01:20	32.7	32.7	32.7	94	31.2	0	1	248	0.00	29.979 
01:25	32.7	32.7	32.7	94	31.2	0	1	248	0.00	29.979 
01:30	32.7	32.7	32.7	94	31.2	0	2	248	0.00	29.975 
01:35	32.7	32.7	32.7	94	31.2	0	2	248	0.00	29.975 
01:40	32.7	32.7	32.7	94	31.2	0	2	248	0.00	29.975 
01:45	32.7	32.7	32.7	94	31.2	0	1	248	0.00	29.978 
01:50	32.7	32.7	32.7	94	31.2	0	1	248	0.00	29.978 
01:55	32.7	32.7	32.7	94	31.2	0	1	248	0.00	29.978 
02:00	32.7	32.7	32.7	94	31.2	0	1	248	0.00	29.977 
02:05	32.7	32.7	32.7	94	31.2	0	0	---	0.00	29.977 
02:10	32.7	32.7	32.7	94	31.2	0	0	---	0.00	29.977 
02:15	32.7	32.7	32.7	94	31.2	0	2	112	0.00	29.975 
02:20	32.7	32.7	32.7	94	31.2	0	1	112	0.00	29.975 
02:25	32.7	32.7	32.7	94	31.2	0	0	---	0.00	29.975 
02:30	32.5	32.5	32.5	94	31.0	0	1	112	0.00	29.977 
02:35	32.5	32.5	32.5	94	31.0	0	1	112	0.00	29.977 
02:40	32.5	32.5	32.5	95	31.2	0	2	112	0.00	29.977 
02:45	32.5	32.5	32.5	95	31.2	0	1	112	0.00	29.976 
02:50	32.5	32.5	32.5	95	31.2	0	2	112	0.00	29.976 
02:55	32.5	32.5	32.5	95	31.2	0	2	112	0.00	29.976 
03:00	32.5	32.5	32.5	95	31.2	0	1	112	0.00	29.975 
03:05	32.5	32.5	32.5	95	31.2	0	1	112	0.00	29.975 
03:10	32.5	32.5	32.5	95	31.2	0	1	112	0.00	29.975 
03:15	32.5	32.5	32.5	95	31.2	0	2	112	0.00	29.974 
03:20	32.5	32.5	32.5	95	31.2	0	1	112	0.00	29.974 
03:25	32.5	32.5	32.5	95	31.2	0	1	112	0.00	29.974 
03:30	32.5	32.5	32.5	95	31.2	0	1	112	0.00	29.970 
03:35	32.7	32.7	32.7	95	31.4	0	1	112	0.00	29.970 
03:40	32.7	32.7	32.7	95	31.4	0	1	248	0.00	29.970 
03:45	32.7	32.7	32.7	95	31.4	0	1	248	0.00	29.964 
03:50	32.7	32.7	32.7	95	31.4	0	2	248	0.00	29.964 
03:55	32.7	32.7	32.7	95	31.4	0	2	248	0.00	29.964 
04:00	32.7	32.7	32.7	95	31.4	0	1	248	0.00	29.960 
04:05	32.7	32.7	32.7	95	31.4	0	2	248	0.00	29.960 
04:10	32.7	32.7	32.7	95	31.4	0	1	248	0.00	29.960 
04:15	32.7	32.7	32.7	95	31.4	0	1	248	0.00	29.957 
04:20	32.7	32.7	32.7	95	31.4	0	1	248	0.00	29.957 
04:25	32.7	32.7	32.7	95	31.4	0	2	248	0.00	29.957 
04:30	32.7	32.7	32.7	95	31.4	0	2	248	0.00	29.948 
04:35	32.7	32.7	32.7	95	31.4	0	1	248	0.00	29.948 
04:40	32.7	32.7	32.7	95	31.4	0	2	248	0.00	29.948 
04:45	32.7	32.7	32.7	95	31.4	0	1	248	0.00	29.950 
04:50	32.7	32.7	32.7	95	31.4	0	1	248	0.00	29.950 
04:55	32.7	32.7	32.7	95	31.4	0	1	248	0.00	29.950 
05:00	32.7	32.7	32.7	95	31.4	0	1	248	0.00	29.946 
05:05	32.7	32.7	32.7	95	31.4	0	1	248	0.00	29.946 
05:10	32.7	32.7	32.7	95	31.4	0	1	248	0.00	29.946 
05:15	32.7	32.7	32.7	95	31.4	0	1	248	0.00	29.946 
05:20	32.7	32.7	32.7	95	31.4	0	1	248	0.00	29.946 
05:25	32.7	32.7	32.7	95	31.4	0	1	248	0.00	29.946 
05:30	32.7	32.7	32.7	95	31.4	0	2	248	0.00	29.946 
05:35	32.8	32.8	32.8	95	31.5	0	3	248	0.00	29.946 
05:40	32.8	32.8	32.8	95	31.5	0	1	248	0.00	29.946 
05:45	32.8	32.8	32.8	95	31.5	0	3	248	0.00	29.947 
05:50	32.8	32.8	32.8	96	31.8	1	3	248	0.00	29.947 
05:55	32.8	32.8	32.8	96	31.8	0	2	248	0.00	29.947 
06:00	32.8	32.8	32.8	96	31.8	0	2	248	0.00	29.948 
06:05	32.8	32.8	32.8	96	31.8	0	1	248	0.00	29.948 
06:10	32.8	32.8	32.8	96	31.8	0	1	248	0.00	29.948 
06:15	32.8	32.8	32.8	96	31.8	0	3	248	0.00	29.951 
06:20	32.8	32.8	32.8	95	31.5	0	1	248	0.00	29.951 
06:25	32.8	32.8	32.8	95	31.5	0	1	248	0.00	29.951 
06:30	32.8	32.8	32.8	96	31.8	0	2	248	0.00	29.956 
06:35	32.8	32.8	32.8	96	31.8	0	1	248	0.00	29.956 
06:40	32.8	32.8	32.8	96	31.8	0	1	248	0.00	29.956 
06:45	32.8	32.8	32.8	96	31.8	0	2	248	0.00	29.961 
06:50	32.8	32.8	32.8	96	31.8	0	2	248	0.00	29.961 
06:55	32.8	32.8	32.8	96	31.8	0	2	248	0.00	29.961 
07:00	32.8	32.8	32.8	96	31.8	0	2	248	0.00	29.961 
07:05	32.9	32.9	32.9	96	31.9	0	3	248	0.00	29.961 
07:10	32.9	32.9	32.9	96	31.9	1	3	248	0.00	29.961 
07:15	32.9	32.9	32.9	96	31.9	0	2	248	0.00	29.959 
07:20	32.9	32.9	32.9	96	31.9	0	1	248	0.00	29.959 
07:25	32.9	32.9	32.9	96	31.9	0	1	248	0.00	29.959 
07:30	32.9	32.9	32.9	96	31.9	0	1	248	0.00	29.959 
07:35	32.9	32.9	32.9	96	31.9	0	3	248	0.00	29.959 
07:40	32.9	32.9	32.9	96	31.9	0	1	248	0.00	29.959 
07:45	32.9	32.9	32.9	96	31.9	0	1	248	0.00	29.963 
07:50	32.9	32.9	32.9	96	31.9	0	2	248	0.00	29.963 
07:55	32.9	32.9	32.9	96	31.9	0	2	248	0.00	29.963 
08:00	32.9	32.9	32.9	96	31.9	1	3	248	0.00	29.968 
08:05	32.9	32.9	32.9	96	31.9	1	3	248	0.00	29.968 
08:10	33.1	33.1	33.1	96	32.1	1	3	248	0.00	29.968 
08:15	33.1	33.1	33.1	96	32.1	1	4	225	0.00	29.977 
08:20	33.1	33.1	33.1	96	32.1	1	4	248	0.00	29.977 
08:25	33.1	33.1	33.1	96	32.1	1	5	248	0.00	29.977 
08:30	33.1	33.1	33.1	96	32.1	1	4	248	0.00	29.977 
08:35	33.1	33.1	33.1	96	32.1	1	4	248	0.00	29.977 
08:40	33.1	33.1	33.1	96	32.1	1	4	248	0.00	29.977 
08:45	33.1	33.1	33.1	96	32.1	1	4	248	0.00	29.977 
08:50	33.1	33.1	33.1	96	32.1	1	4	248	0.00	29.977 
08:55	33.1	33.1	33.1	96	32.1	1	3	248	0.00	29.977 
09:00	33.1	33.1	33.1	96	32.1	1	5	248	0.00	29.979 
09:05	33.1	33.1	33.1	96	32.1	1	3	248	0.00	29.979 
09:10	33.1	33.1	33.1	96	32.1	1	4	270	0.00	29.979 
09:15	33.1	33.1	33.1	96	32.1	1	3	248	0.00	29.982 
09:20	33.2	33.2	33.2	96	32.2	1	4	248	0.00	29.982 
09:25	33.2	33.2	33.2	96	32.2	1	4	248	0.00	29.982 
09:30	33.2	33.2	33.2	96	32.2	1	4	248	0.00	29.987 
09:35	33.2	33.2	33.2	96	32.2	1	4	248	0.00	29.987 
09:40	33.2	33.2	33.2	96	32.2	1	4	248	0.00	29.987 
09:45	33.2	33.2	33.2	96	32.2	0	3	248	0.00	29.990 
09:50	33.2	33.2	33.2	96	32.2	1	4	248	0.00	29.990 
09:55	33.4	33.4	33.4	96	32.4	1	3	225	0.00	29.990 
10:00	33.4	33.4	33.4	96	32.4	1	4	248	0.00	29.991 
10:05	33.5	33.5	33.5	96	32.5	0	4	248	0.00	29.991 
10:10	33.5	33.5	33.5	96	32.5	1	4	248	0.00	29.991 
10:15	33.7	33.7	33.7	96	32.7	1	4	248	0.00	29.993 
10:20	33.7	33.7	33.7	96	32.7	0	3	248	0.00	29.993 
10:25	33.7	33.7	33.7	96	32.7	1	4	248	0.00	29.993 
10:30	34.0	34.0	34.0	96	33.0	1	5	248	0.00	29.994 
10:35	34.0	34.0	34.0	96	33.0	1	2	248	0.00	29.994 
10:40	34.1	34.1	34.1	95	32.8	0	2	248	0.00	29.994 
10:45	34.0	34.0	34.0	95	32.7	1	3	248	0.00	29.995 
10:50	34.0	34.0	34.0	95	32.7	1	4	248	0.00	29.995 
10:55	34.1	34.1	34.1	95	32.8	0	1	248	0.00	29.995 
11:00	34.4	34.4	34.4	95	33.1	0	3	248	0.00	29.991 
11:05	34.6	34.6	34.6	95	33.3	0	3	248	0.00	29.991 
11:10	34.9	34.9	34.9	95	33.6	0	2	248	0.00	29.991 
11:15	34.9	34.9	34.9	95	33.6	1	4	248	0.00	29.990 
11:20	34.7	34.7	34.7	94	33.2	2	6	248	0.00	29.990 
11:25	34.7	34.7	34.7	94	33.2	2	6	248	0.00	29.990 
11:30	34.9	34.9	34.9	94	33.4	1	3	248	0.00	29.988 
11:35	35.0	35.0	35.0	94	33.5	1	3	248	0.00	29.988 
11:40	35.2	35.2	35.2	94	33.6	1	3	248	0.00	29.988 
11:45	35.0	35.0	35.0	93	33.2	2	6	248	0.00	29.987 
11:50	35.0	35.0	35.0	93	33.2	2	7	248	0.00	29.987 
11:55	35.2	35.2	35.2	92	33.1	2	5	248	0.00	29.987 
12:00	35.2	35.2	35.2	92	33.1	1	4	248	0.00	29.986 
12:05	35.3	35.3	35.3	92	33.2	1	4	248	0.00	29.986 
12:10	35.5	35.5	35.5	92	33.4	2	6	248	0.01	29.986 
12:15	35.3	35.3	35.3	91	32.9	1	5	248	0.00	29.975 
12:20	35.3	35.3	35.3	90	32.7	2	4	248	0.00	29.975 
12:25	35.2	35.2	35.2	90	32.6	2	4	248	0.00	29.975 
12:30	35.0	35.0	35.0	90	32.4	1	6	248	0.00	29.974 
12:35	34.9	34.9	34.9	89	32.0	2	9	248	0.01	29.974 
12:40	34.9	34.9	34.9	89	32.0	1	2	225	0.00	29.974 
12:45	34.9	34.9	34.9	89	32.0	2	6	248	0.01	29.974 
12:50	34.7	34.7	34.7	89	31.8	1	4	248	0.00	29.974 
12:55	34.7	34.7	34.7	89	31.8	2	9	248	0.00	29.974 
13:00	34.6	34.6	34.6	89	31.7	2	6	270	0.01	29.973 
13:05	34.6	34.6	34.6	89	31.7	1	3	270	0.01	29.973 
13:10	34.6	34.6	34.6	89	31.7	2	3	248	0.00	29.973 
13:15	34.6	34.6	34.6	90	32.0	1	5	248	0.01	29.973 
13:20	34.4	34.4	34.4	90	31.8	2	6	248	0.00	29.973 
13:25	34.4	34.4	34.4	90	31.8	2	6	248	0.01	29.973 
13:30	34.3	34.3	34.3	90	31.7	2	5	248	0.00	29.971 
13:35	34.3	34.3	34.3	90	31.7	2	5	248	0.01	29.971 
13:40	34.3	34.3	34.3	90	31.7	1	4	225	0.00	29.971 
13:45	34.3	34.3	34.3	90	31.7	2	9	248	0.00	29.972 
13:50	34.3	34.3	34.3	90	31.7	2	6	248	0.01	29.972 
13:55	34.1	34.1	34.1	90	31.5	2	6	248	0.00	29.972 
14:00	34.1	34.1	34.1	90	31.5	2	5	248	0.00	29.974 
14:05	34.1	34.1	34.1	90	31.5	2	6	248	0.00	29.974 
14:10	34.1	34.1	34.1	90	31.5	1	4	248	0.00	29.974 
14:15	34.0	34.0	34.0	90	31.4	1	3	248	0.01	29.975 
14:20	34.0	34.0	34.0	90	31.4	0	2	270	0.00	29.975 
14:25	34.0	34.0	34.0	90	31.4	1	5	225	0.00	29.975 
14:30	34.1	34.1	34.1	90	31.5	1	6	225	0.00	29.974 
14:35	34.1	34.1	34.1	90	31.5	2	6	248	0.00	29.974 
14:40	34.1	34.1	34.1	90	31.5	1	4	248	0.00	29.974 
14:45	34.1	34.1	34.1	90	31.5	2	4	270	0.00	29.977 
14:50	34.1	34.1	34.1	90	31.5	2	4	248	0.01	29.977 
14:55	34.1	34.1	34.1	89	31.2	2	7	248	0.00	29.977 
15:00	34.1	34.1	34.1	89	31.2	2	6	248	0.00	29.980 
15:05	34.1	34.1	34.1	89	31.2	2	7	248	0.00	29.980 
15:10	34.1	34.1	34.1	89	31.2	1	3	225	0.00	29.980 
15:15	34.1	34.1	34.1	89	31.2	1	2	225	0.00	29.990 
15:20	34.1	34.1	34.1	89	31.2	1	4	248	0.00	29.990 
15:25	34.1	34.1	34.1	89	31.2	1	4	248	0.00	29.990 
15:30	34.1	34.1	34.1	89	31.2	1	4	248	0.01	29.992 
15:35	34.0	34.0	34.0	89	31.1	2	4	292	0.00	29.992 
15:40	34.0	34.0	34.0	89	31.1	2	4	270	0.00	29.992 
15:45	34.0	34.0	34.0	89	31.1	1	7	248	0.00	29.992 
15:50	34.0	34.0	34.0	88	30.8	1	5	248	0.00	29.992 
15:55	33.8	33.8	33.8	88	30.6	1	4	270	0.00	29.992 
16:00	33.8	33.8	33.8	88	30.6	2	4	248	0.00	29.998 
16:05	33.8	33.8	33.8	88	30.6	2	7	270	0.00	29.998 
16:10	33.8	33.8	33.8	88	30.6	0	4	270	0.00	29.998 
16:15	33.8	33.8	33.8	88	30.6	1	4	248	0.00	30.002 
16:20	33.8	33.8	33.8	88	30.6	1	3	270	0.00	30.002 
16:25	33.8	33.8	33.8	88	30.6	1	4	270	0.00	30.002 
16:30	33.8	33.8	33.8	88	30.6	1	7	270	0.00	30.009 
16:35	33.8	33.8	33.8	87	30.3	3	9	248	0.01	30.009 
16:40	33.8	33.8	33.8	87	30.3	1	3	248	0.00	30.009 
16:45	33.8	33.8	33.8	87	30.3	1	6	225	0.00	30.013 
16:50	33.8	33.8	33.8	87	30.3	2	6	270	0.00	30.013 
16:55	33.7	33.7	33.7	87	30.3	2	5	248	0.00	30.013 
17:00	33.7	33.7	33.7	87	30.3	1	3	248	0.00	30.017 
17:05	33.5	33.5	33.5	87	30.1	2	4	248	0.00	30.017 
17:10	33.5	33.5	33.5	87	30.1	1	3	248	0.00	30.017 
17:15	33.5	33.5	33.5	87	30.1	2	4	248	0.00	30.022 
17:20	33.5	33.5	33.5	86	29.8	1	3	248	0.00	30.022 
17:25	33.4	33.4	33.4	86	29.7	1	3	248	0.00	30.022 
17:30	33.4	33.4	33.4	86	29.7	1	2	248	0.00	30.024 
17:35	33.2	33.2	33.2	86	29.5	1	3	248	0.00	30.024 
17:40	33.2	33.2	33.2	86	29.5	1	2	248	0.00	30.024 
17:45	33.1	33.1	33.1	85	29.1	1	5	248	0.00	30.031 
17:50	32.9	32.9	32.9	84	28.6	3	11	270	0.00	30.031 
17:55	32.9	32.9	32.9	82	28.0	3	7	270	0.00	30.031 
18:00	32.9	32.9	32.9	82	28.0	2	5	248	0.00	30.035 
18:05	32.9	32.9	32.9	82	28.0	2	5	248	0.00	30.035 
18:10	32.9	32.9	32.9	82	28.0	2	6	248	0.00	30.035 
18:15	32.9	32.9	32.9	82	28.0	3	5	248	0.00	30.036 
18:20	32.8	32.8	32.8	82	27.9	1	3	315	0.00	30.036 
18:25	32.8	32.8	32.8	82	27.9	2	4	270	0.00	30.036 
18:30	32.7	32.7	32.7	82	27.8	1	5	315	0.00	30.036 
18:35	32.7	32.7	32.7	82	27.8	1	3	315	0.00	30.036 
18:40	32.7	32.7	32.7	82	27.8	2	4	248	0.00	30.036 
18:45	32.7	32.7	32.7	82	27.8	1	4	248	0.00	30.040 
18:50	32.7	32.7	32.7	82	27.8	0	1	248	0.00	30.040 
18:55	32.7	32.7	32.7	83	28.1	0	2	248	0.00	30.040 
19:00	32.5	32.5	32.5	82	27.6	2	4	248	0.00	30.050 
19:05	32.5	32.5	32.5	81	27.3	2	5	270	0.00	30.050 
19:10	32.5	32.5	32.5	81	27.3	2	4	248	0.00	30.050 
19:15	32.4	32.4	32.4	80	26.9	2	7	270	0.00	30.052 
19:20	32.2	32.2	32.2	80	26.7	2	4	270	0.00	30.052 
19:25	32.2	32.2	32.2	80	26.7	2	4	248	0.00	30.052 
19:30	32.1	32.1	32.1	81	26.9	2	5	270	0.00	30.051 
19:35	32.1	32.1	32.1	81	26.9	2	4	270	0.00	30.051 
19:40	31.9	31.9	31.9	81	26.7	2	4	248	0.00	30.051 
19:45	31.8	31.8	31.8	81	26.6	1	3	248	0.00	30.054 
19:50	31.5	31.5	31.5	80	26.1	2	5	248	0.00	30.054 
19:55	31.3	31.3	31.3	79	25.6	3	9	248	0.00	30.054 
20:00	31.3	31.3	31.3	79	25.6	2	5	270	0.00	30.056 
20:05	31.2	31.2	31.2	79	25.5	2	6	248	0.00	30.056 
20:10	31.2	31.2	31.2	78	25.2	2	6	270	0.00	30.056 
20:15	31.0	31.0	31.0	77	24.7	2	4	248	0.00	30.055 
20:20	30.9	30.9	30.9	77	24.6	2	4	248	0.00	30.055 
20:25	30.7	30.7	30.7	78	24.7	2	4	248	0.00	30.055 
20:30	30.7	30.7	30.7	78	24.7	3	7	248	0.00	30.057 
20:35	30.6	30.6	30.6	78	24.6	3	7	270	0.00	30.057 
20:40	30.4	30.4	30.4	78	24.4	2	5	248	0.00	30.057 
20:45	30.4	30.4	30.4	78	24.4	2	6	270	0.00	30.069 
20:50	30.3	30.3	30.3	78	24.3	2	7	270	0.00	30.069 
20:55	30.1	30.1	30.1	78	24.1	2	5	270	0.00	30.069 
21:00	30.1	30.1	30.1	79	24.4	3	7	270	0.00	30.070 
21:05	30.0	30.0	30.0	79	24.3	2	4	248	0.00	30.070 
21:10	29.8	29.8	29.8	79	24.1	3	5	270	0.00	30.070 
21:15	29.7	29.7	29.7	80	24.3	2	4	248	0.00	30.075 
21:20	29.5	29.5	29.5	80	24.1	2	5	270	0.00	30.075 
21:25	29.1	29.1	29.1	81	24.0	3	7	270	0.00	30.075 
21:30	28.8	24.4	28.8	81	23.7	4	12	270	0.00	30.077 
21:35	28.5	28.5	28.5	82	23.7	2	7	270	0.00	30.077 
21:40	28.4	28.4	28.4	82	23.6	2	5	248	0.00	30.077 
21:45	28.1	28.1	28.1	82	23.3	2	6	270	0.00	30.075 
21:50	27.9	27.9	27.9	83	23.4	2	5	248	0.00	30.075 
21:55	27.8	27.8	27.8	83	23.3	2	7	270	0.00	30.075 
22:00	27.6	27.6	27.6	84	23.4	3	7	270	0.00	30.086 
22:05	27.5	27.5	27.5	84	23.3	3	7	270	0.00	30.086 
22:10	27.2	27.2	27.2	84	23.0	3	7	270	0.00	30.086 
22:15	27.0	27.0	27.0	84	22.8	2	6	270	0.00	30.088 
22:20	26.9	26.9	26.9	85	23.0	3	7	270	0.00	30.088 
22:25	26.6	26.6	26.6	85	22.7	3	9	270	0.00	30.088 
22:30	26.4	26.4	26.4	86	22.8	3	5	270	0.00	30.089 
22:35	26.1	26.1	26.1	86	22.5	3	5	270	0.00	30.089 
22:40	25.8	25.8	25.8	87	22.5	3	9	270	0.00	30.089 
22:45	25.7	25.7	25.7	87	22.4	3	6	270	0.00	30.091 
22:50	25.6	25.6	25.6	87	22.3	3	5	270	0.00	30.091 
22:55	25.6	25.6	25.6	87	22.3	2	4	248	0.00	30.091 
23:00	25.3	25.3	25.3	87	22.0	3	6	270	0.00	30.095 
23:05	25.0	25.0	25.0	88	22.0	2	5	270	0.00	30.095 
23:10	25.0	25.0	25.0	88	22.0	2	6	248	0.00	30.095 
23:15	24.8	24.8	24.8	88	21.8	2	7	270	0.00	30.101 
23:20	24.7	24.7	24.7	88	21.7	2	7	248	0.00	30.101 
23:25	24.7	24.7	24.7	88	21.7	2	5	270	0.00	30.101 
23:30	24.5	24.5	24.5	88	21.5	2	4	270	0.00	30.107 
23:35	24.5	24.5	24.5	88	21.5	2	5	248	0.00	30.107 
23:40	24.4	24.4	24.4	88	21.4	1	3	315	0.00	30.107 
23:45	24.2	24.2	24.2	88	21.2	1	4	0	0.00	30.116 
23:50	23.9	23.9	23.9	86	20.3	1	3	338	0.00	30.116 
23:55	23.6	23.6	23.6	84	19.5	2	6	270	0.00	30.116 

CoCoRaHS
IN-AL-39
A2 Web Hosting
Creative Commons License
GoDaddy
search engine by freefind advanced

loaded 2018-11-12 14:46:25 • last modified 2010-11-18 10:43:29
Privacy PolicyDisclaimer
• wx.awcolley.com is powered by PmWiki v.2002016 •
• all content (unless otherwise noted) © 2018 A W Colley